Aeroporto :
LOGIN :

Iscrizione | Disclaimer

   EN    FR    IT 

 










Sommario :    VFR   VFR Marginale   IFR   IFR Intensivo   IFR Molto Intensivo
Visibilità : 
Base nubi : 
>= 8 km
>= 3000ft
5 / 8 km
1000 / 3000 ft
1500m / 5 km
500 / 1000 ft
800 / 1500m
200 / 500 ft
< 800m
< 200 ft
Simboli :   Temporali  Nebbia  Neve Forte  Precipitazioni Forti  Vento > 20 kt
SIGMETs :   Varie  Temporali  Ghiacco  Turbolenza  Onda orograficha  Ceneri Vulcaniche






- Altitudine del aeroporto : 755 ft
- Codice IATA : DRS


EDDC - Dresden Klotzsche

ULTIMO METAR :
  • 210750Z 08004KT 2000 BR SCT004 06/05 Q1011 BECMG 3000 BR

METARs OBSOLETI :
  • 210720Z 11003KT 050V170 1400 R22/P2000N BR SCT004 06/05 Q1011 NOSIG
  • 210650Z 07002KT 1400 R22/P2000N BR SCT004 05/05 Q1011 NOSIG
  • 210620Z 05002KT 1400 R22/P2000N -DZ BR SCT004 05/05 Q1011 TEMPO 0700 FG
  • 210550Z 05002KT 2400 -DZ BR BKN004 05/05 Q1011 TEMPO SCT004
  • 210520Z 06003KT 2400 -DZ BR BKN004 05/05 Q1011 NOSIG

TAF AMD TAF EDDC
Valido dal 21 a 07 ore il 22 a 06 ore UTC


210734Z 2107/2206 07005KT 4500 BR FEW004 BKN020
TEMPO 2107/2111 1400 -DZRA BKN004
PROB40
TEMPO 2110/2113 6000
BECMG 2113/2116 6000
BECMG 2118/2122 14005KT
TEMPO 2122/2202 3500 BR
TEMPO 2202/2206 1200 BCFG BKN002



MetMap, La meteo Aeronautica in un colpo d'occhio ! - Copyright ORBIFLY Dicembre 2007 - Disclaimer

ORBIFLY MET'MAP TEAM :

Programmazione e sviluppo : Alexandra Zaïnal
Concezione e sviluppo : Baudouin d'Aumeries
Co-Programmazione e sviluppo : Marc-Olivier Méhu
Supporto tecnico e logistico : Manuel Goepfert
Aiuto per la traduzione : Arnaldo La Scala

Contatto : metmap@orbifly.com




FONTI E CREDITI :

   NOAA